Time;durP1;ratioP1;P1;durP2;ratioP2;P2;SDS_P1;SDS_P2;PMS_P1;PMS_P2;Temp;Humidity;BMP_temperature;BMP_pressure;BME280_temperature;BME280_humidity;BME280_pressure;Samples;Min_cycle;Max_cycle;Signal;HPM_P1;HPM_P2
2022/03/21 00:00:03;;;;;;;53.63;42.78;;;;;;;;;;2066964;28;20189;-57
2022/03/21 00:01:18;;;;;;;54.65;41.70;;;;;;;;;;2059974;28;20201;-56
2022/03/21 00:02:19;;;;;;;53.90;42.20;;;;;;;;;;2066477;28;20210;-55
2022/03/21 00:03:21;;;;;;;52.45;40.47;;;;;;;;;;2074543;28;20177;-56
2022/03/21 00:04:22;;;;;;;55.00;42.65;;;;;;;;;;2071533;28;20220;-55
2022/03/21 00:05:22;;;;;;;54.97;41.20;;;;;;;;;;2066467;28;20305;-57
2022/03/21 00:06:23;;;;;;;56.55;42.53;;;;;;;;;;2066313;28;20197;-57
2022/03/21 00:07:23;;;;;;;55.58;40.85;;;;;;;;;;2074187;28;20177;-54
2022/03/21 00:08:24;;;;;;;52.80;40.92;;;;;;;;;;2074947;28;20237;-56
2022/03/21 00:09:24;;;;;;;53.13;41.08;;;;;;;;;;2074680;28;20181;-58
2022/03/21 00:10:24;;;;;;;55.55;41.50;;;;;;;;;;2073127;28;20215;-58
2022/03/21 00:11:25;;;;;;;51.78;41.03;;;;;;;;;;2074278;28;20169;-56
2022/03/21 00:12:25;;;;;;;55.85;42.15;;;;;;;;;;2066557;28;20181;-55
2022/03/21 00:13:26;;;;;;;57.35;43.88;;;;;;;;;;2066173;28;20201;-57
2022/03/21 00:14:27;;;;;;;57.83;43.22;;;;;;;;;;2074456;28;20567;-54
2022/03/21 00:15:29;;;;;;;55.42;44.55;;;;;;;;;;2066294;28;20174;-56
2022/03/21 00:16:29;;;;;;;52.70;41.25;;;;;;;;;;2067089;28;20168;-55
2022/03/21 00:17:30;;;;;;;52.22;41.50;;;;;;;;;;2066888;28;20569;-55
2022/03/21 00:18:31;;;;;;;53.55;42.30;;;;;;;;;;2070941;28;20197;-56
2022/03/21 00:19:31;;;;;;;53.72;41.58;;;;;;;;;;2066069;28;20190;-53
2022/03/21 00:20:32;;;;;;;53.42;41.92;;;;;;;;;;2066135;28;20201;-54
2022/03/21 00:21:34;;;;;;;56.92;40.58;;;;;;;;;;2074881;28;20224;-54
2022/03/21 00:22:35;;;;;;;52.25;40.58;;;;;;;;;;2069362;28;20170;-54
2022/03/21 00:23:35;;;;;;;55.65;41.17;;;;;;;;;;2067223;28;20170;-54
2022/03/21 00:24:38;;;;;;;50.05;40.33;;;;;;;;;;2075409;28;20669;-57
2022/03/21 00:25:38;;;;;;;50.92;40.45;;;;;;;;;;2065337;28;20189;-57
2022/03/21 00:26:39;;;;;;;56.40;41.88;;;;;;;;;;2066017;28;20193;-54
2022/03/21 00:27:48;;;;;;;49.10;39.78;;;;;;;;;;2060476;28;20174;-55
2022/03/21 00:28:50;;;;;;;55.33;40.38;;;;;;;;;;2066586;28;20182;-56
2022/03/21 00:29:50;;;;;;;55.63;42.60;;;;;;;;;;2065773;28;20201;-54
2022/03/21 00:30:51;;;;;;;52.05;40.35;;;;;;;;;;2074016;28;20218;-55
2022/03/21 00:31:52;;;;;;;51.45;40.42;;;;;;;;;;2065757;28;20687;-57
2022/03/21 00:32:52;;;;;;;52.55;41.05;;;;;;;;;;2057307;28;20166;-56
2022/03/21 00:33:52;;;;;;;53.00;39.65;;;;;;;;;;2060101;28;20186;-53
2022/03/21 00:34:53;;;;;;;52.50;40.42;;;;;;;;;;2071829;28;20256;-53
2022/03/21 00:35:53;;;;;;;50.05;39.55;;;;;;;;;;2068759;28;20642;-53
2022/03/21 00:36:53;;;;;;;53.42;41.53;;;;;;;;;;2073651;28;20266;-57
2022/03/21 00:37:54;;;;;;;50.40;40.42;;;;;;;;;;2074259;28;20168;-56
2022/03/21 00:38:54;;;;;;;54.35;41.20;;;;;;;;;;2074457;28;20206;-57
2022/03/21 00:39:54;;;;;;;49.30;39.78;;;;;;;;;;2067755;28;20177;-55
2022/03/21 00:40:55;;;;;;;48.85;40.10;;;;;;;;;;2068650;28;20189;-53
2022/03/21 00:41:56;;;;;;;52.70;39.20;;;;;;;;;;2068075;28;20178;-55
2022/03/21 00:42:58;;;;;;;50.33;40.15;;;;;;;;;;2075433;28;20173;-55
2022/03/21 00:43:59;;;;;;;54.45;42.63;;;;;;;;;;2077417;28;20208;-55
2022/03/21 00:45:09;;;;;;;51.22;41.13;;;;;;;;;;2074120;28;20642;-53
2022/03/21 00:46:10;;;;;;;49.65;38.45;;;;;;;;;;2078745;28;20208;-56
2022/03/21 00:47:10;;;;;;;52.83;39.38;;;;;;;;;;2079469;28;20696;-55
2022/03/21 00:48:11;;;;;;;52.55;41.67;;;;;;;;;;2078960;28;20326;-53
2022/03/21 00:49:13;;;;;;;52.72;41.58;;;;;;;;;;2081208;28;20185;-52
2022/03/21 00:50:14;;;;;;;54.42;42.92;;;;;;;;;;2076978;28;20407;-54
2022/03/21 00:51:15;;;;;;;56.92;41.20;;;;;;;;;;2077604;28;20684;-55
2022/03/21 00:52:15;;;;;;;51.25;41.60;;;;;;;;;;2072795;28;20225;-62
2022/03/21 00:53:16;;;;;;;54.85;42.08;;;;;;;;;;2061420;28;20182;-54
2022/03/21 00:54:17;;;;;;;51.55;40.97;;;;;;;;;;2066713;28;20216;-54
2022/03/21 00:55:18;;;;;;;53.47;41.25;;;;;;;;;;2066009;28;20260;-56
2022/03/21 00:56:18;;;;;;;51.55;39.53;;;;;;;;;;2066348;28;20173;-58
2022/03/21 00:57:18;;;;;;;54.75;41.72;;;;;;;;;;2073919;28;20703;-58
2022/03/21 00:58:19;;;;;;;48.13;39.65;;;;;;;;;;2075124;28;20236;-56
2022/03/21 00:59:19;;;;;;;49.63;40.63;;;;;;;;;;2075232;28;20176;-56
2022/03/21 01:00:20;;;;;;;52.08;41.33;;;;;;;;;;2074125;28;20200;-59
2022/03/21 01:01:21;;;;;;;52.30;40.55;;;;;;;;;;2075924;28;20181;-60
2022/03/21 01:02:21;;;;;;;52.90;41.28;;;;;;;;;;2074620;28;20177;-56
2022/03/21 01:03:22;;;;;;;51.45;40.40;;;;;;;;;;2075486;28;20207;-57
2022/03/21 01:04:22;;;;;;;51.55;40.25;;;;;;;;;;2074209;28;20193;-55
2022/03/21 01:05:23;;;;;;;62.63;43.65;;;;;;;;;;2073118;28;20172;-57
2022/03/21 01:06:23;;;;;;;52.72;40.47;;;;;;;;;;2072869;28;20243;-57
2022/03/21 01:07:23;;;;;;;51.17;39.20;;;;;;;;;;2073866;28;20821;-54
2022/03/21 01:08:24;;;;;;;55.83;41.05;;;;;;;;;;2074803;28;20201;-58
2022/03/21 01:09:24;;;;;;;54.17;40.08;;;;;;;;;;2075131;28;20232;-54
2022/03/21 01:10:26;;;;;;;50.55;40.22;;;;;;;;;;2074642;28;20217;-55
2022/03/21 01:11:26;;;;;;;54.67;42.45;;;;;;;;;;2066029;28;20229;-56
2022/03/21 01:12:27;;;;;;;52.42;42.20;;;;;;;;;;2065231;28;20177;-55
2022/03/21 01:13:28;;;;;;;51.17;41.10;;;;;;;;;;2073668;28;20177;-57
2022/03/21 01:14:28;;;;;;;50.45;41.13;;;;;;;;;;2074383;28;20192;-57
2022/03/21 01:15:29;;;;;;;49.72;37.58;;;;;;;;;;2071134;28;20165;-54
2022/03/21 01:16:29;;;;;;;50.70;39.20;;;;;;;;;;2073464;28;20549;-55
2022/03/21 01:17:29;;;;;;;52.22;40.75;;;;;;;;;;2074609;28;20177;-58
2022/03/21 01:18:29;;;;;;;50.65;40.13;;;;;;;;;;2074949;28;20189;-57
2022/03/21 01:19:30;;;;;;;49.35;39.80;;;;;;;;;;2073561;28;20188;-54
2022/03/21 01:20:30;;;;;;;51.92;40.75;;;;;;;;;;2073503;28;20550;-57
2022/03/21 01:21:31;;;;;;;53.42;41.20;;;;;;;;;;2073532;28;20176;-59
2022/03/21 01:22:31;;;;;;;52.75;40.50;;;;;;;;;;2069984;28;20583;-56
2022/03/21 01:23:31;;;;;;;48.40;39.30;;;;;;;;;;2073010;28;20176;-55
2022/03/21 01:24:33;;;;;;;52.08;39.63;;;;;;;;;;2072590;28;20603;-54
2022/03/21 01:25:33;;;;;;;54.42;42.53;;;;;;;;;;2073370;28;20206;-56
2022/03/21 01:26:33;;;;;;;52.75;42.03;;;;;;;;;;2068497;28;20178;-57
2022/03/21 01:27:34;;;;;;;53.10;41.58;;;;;;;;;;2074059;28;20579;-55
2022/03/21 01:28:34;;;;;;;52.42;40.22;;;;;;;;;;2073397;28;20228;-57
2022/03/21 01:29:35;;;;;;;53.28;40.47;;;;;;;;;;2070615;28;20184;-53
2022/03/21 01:30:36;;;;;;;50.22;40.70;;;;;;;;;;2065499;28;20252;-55
2022/03/21 01:31:36;;;;;;;49.92;38.97;;;;;;;;;;2068736;28;20166;-54
2022/03/21 01:32:37;;;;;;;55.47;41.58;;;;;;;;;;2065596;28;20190;-55
2022/03/21 01:33:38;;;;;;;52.15;40.05;;;;;;;;;;2064685;28;20162;-56
2022/03/21 01:34:38;;;;;;;48.25;39.22;;;;;;;;;;2073258;28;20197;-56
2022/03/21 01:35:38;;;;;;;48.42;40.08;;;;;;;;;;2073208;28;20215;-57
2022/03/21 01:36:39;;;;;;;51.88;40.28;;;;;;;;;;2073709;28;20596;-57
2022/03/21 01:37:39;;;;;;;53.25;40.63;;;;;;;;;;2066622;28;20611;-58
2022/03/21 01:38:39;;;;;;;52.75;39.83;;;;;;;;;;2073562;28;20206;-54
2022/03/21 01:39:39;;;;;;;51.72;40.47;;;;;;;;;;2066556;28;20225;-54
2022/03/21 01:40:40;;;;;;;52.33;39.25;;;;;;;;;;2073478;28;20161;-52
2022/03/21 01:41:40;;;;;;;49.42;39.97;;;;;;;;;;2073077;28;20212;-58
2022/03/21 01:42:46;;;;;;;51.47;39.97;;;;;;;;;;2074121;28;20541;-54
2022/03/21 01:44:06;;;;;;;50.28;39.08;;;;;;;;;;2071302;28;20229;-55
2022/03/21 01:45:07;;;;;;;50.47;39.47;;;;;;;;;;2074942;28;20177;-53
2022/03/21 01:46:07;;;;;;;53.17;39.47;;;;;;;;;;2075210;28;20173;-56
2022/03/21 01:47:07;;;;;;;52.97;40.30;;;;;;;;;;2076372;28;20657;-53
2022/03/21 01:48:07;;;;;;;48.97;39.92;;;;;;;;;;2076533;28;20204;-54
2022/03/21 01:49:09;;;;;;;55.67;40.63;;;;;;;;;;2076174;28;20172;-53
2022/03/21 01:50:09;;;;;;;52.00;40.55;;;;;;;;;;2076824;28;20200;-54
2022/03/21 01:51:10;;;;;;;50.72;39.60;;;;;;;;;;2073554;28;20657;-52
2022/03/21 01:52:10;;;;;;;50.60;39.63;;;;;;;;;;2076676;28;20259;-54
2022/03/21 01:55:49;;;;;;;49.78;38.90;;;;;;;;;;2081038;28;20161;-57
2022/03/21 01:56:50;;;;;;;50.03;40.08;;;;;;;;;;2081575;28;20200;-56
2022/03/21 01:57:51;;;;;;;55.72;43.15;;;;;;;;;;2081851;28;20165;-55
2022/03/21 01:58:53;;;;;;;49.60;39.05;;;;;;;;;;2078403;28;20157;-56
2022/03/21 01:59:55;;;;;;;51.80;40.80;;;;;;;;;;2067974;28;20181;-56
2022/03/21 02:00:55;;;;;;;51.53;39.47;;;;;;;;;;2068194;28;20173;-53
2022/03/21 02:01:55;;;;;;;52.40;39.72;;;;;;;;;;2067722;28;20181;-58
2022/03/21 02:02:56;;;;;;;50.33;40.85;;;;;;;;;;2060965;28;20551;-57
2022/03/21 02:03:57;;;;;;;54.10;41.67;;;;;;;;;;2067960;28;20173;-57
2022/03/21 02:04:57;;;;;;;53.70;40.00;;;;;;;;;;2059494;28;20194;-57
2022/03/21 02:05:57;;;;;;;50.90;40.38;;;;;;;;;;2060480;28;20180;-54
2022/03/21 02:06:58;;;;;;;52.17;39.65;;;;;;;;;;2076589;28;20557;-55
2022/03/21 02:07:58;;;;;;;50.42;38.60;;;;;;;;;;2076389;28;20173;-55
2022/03/21 02:09:00;;;;;;;48.70;38.90;;;;;;;;;;2076280;28;20217;-57
2022/03/21 02:10:02;;;;;;;50.53;40.03;;;;;;;;;;2076318;28;20204;-56
2022/03/21 02:11:03;;;;;;;53.92;40.97;;;;;;;;;;2065978;28;20170;-55
2022/03/21 02:12:04;;;;;;;49.80;40.03;;;;;;;;;;2066850;28;20173;-56
2022/03/21 02:13:05;;;;;;;51.38;40.17;;;;;;;;;;2070511;28;20174;-56
2022/03/21 02:14:06;;;;;;;52.00;41.00;;;;;;;;;;2073406;28;20209;-56
2022/03/21 02:15:07;;;;;;;55.60;39.85;;;;;;;;;;2074672;28;20247;-55
2022/03/21 02:16:08;;;;;;;49.38;38.83;;;;;;;;;;2075226;28;20247;-57
2022/03/21 02:17:10;;;;;;;52.50;40.00;;;;;;;;;;2073690;28;20180;-58
2022/03/21 02:18:11;;;;;;;55.95;41.22;;;;;;;;;;2073699;28;20173;-57
2022/03/21 02:19:32;;;;;;;52.75;39.85;;;;;;;;;;2073123;28;20531;-56
2022/03/21 02:20:35;;;;;;;50.17;40.80;;;;;;;;;;2073785;28;20180;-57
2022/03/21 02:21:54;;;;;;;56.28;42.00;;;;;;;;;;2070571;28;20207;-58
2022/03/21 02:22:58;;;;;;;58.55;43.08;;;;;;;;;;2065177;28;20643;-57
2022/03/21 02:24:07;;;;;;;57.55;43.72;;;;;;;;;;2064753;28;20209;-55
2022/03/21 02:25:22;;;;;;;52.50;41.13;;;;;;;;;;2069796;28;20165;-55
2022/03/21 02:26:24;;;;;;;51.15;40.30;;;;;;;;;;2073525;28;20548;-56
2022/03/21 02:27:25;;;;;;;52.88;40.78;;;;;;;;;;2073490;28;20669;-57
2022/03/21 02:28:26;;;;;;;49.83;40.10;;;;;;;;;;2064295;28;20174;-55
2022/03/21 02:29:28;;;;;;;53.90;41.38;;;;;;;;;;2064752;28;20225;-56
2022/03/21 02:30:30;;;;;;;54.70;42.17;;;;;;;;;;2072122;28;20204;-56
2022/03/21 02:31:32;;;;;;;52.70;41.28;;;;;;;;;;2064906;28;20697;-59
2022/03/21 02:32:34;;;;;;;54.83;40.22;;;;;;;;;;2065161;28;20182;-57
2022/03/21 02:33:35;;;;;;;58.38;43.40;;;;;;;;;;2073795;28;20165;-56
2022/03/21 02:34:38;;;;;;;56.65;43.25;;;;;;;;;;2072396;28;20204;-52
2022/03/21 02:35:40;;;;;;;56.20;43.47;;;;;;;;;;2073042;28;20267;-58
2022/03/21 02:36:41;;;;;;;52.38;41.92;;;;;;;;;;2073421;28;20200;-53
2022/03/21 02:37:43;;;;;;;51.35;41.25;;;;;;;;;;2064256;28;20182;-55
2022/03/21 02:38:46;;;;;;;57.53;42.90;;;;;;;;;;2064551;28;20169;-55
2022/03/21 02:39:48;;;;;;;55.67;42.60;;;;;;;;;;2072543;28;20176;-54
2022/03/21 02:40:49;;;;;;;53.10;41.08;;;;;;;;;;2073426;28;20260;-54
2022/03/21 02:41:49;;;;;;;52.00;40.83;;;;;;;;;;2064339;28;20189;-54
2022/03/21 02:42:50;;;;;;;54.42;40.20;;;;;;;;;;2065975;28;20177;-56
2022/03/21 02:43:54;;;;;;;56.30;42.08;;;;;;;;;;2078678;28;20562;-55
2022/03/21 02:44:56;;;;;;;55.67;41.45;;;;;;;;;;2071159;28;20212;-56
2022/03/21 02:46:05;;;;;;;50.88;41.60;;;;;;;;;;2064234;28;20233;-53
2022/03/21 02:47:06;;;;;;;54.13;41.90;;;;;;;;;;2069205;28;20181;-56
2022/03/21 02:48:07;;;;;;;54.45;41.42;;;;;;;;;;2080303;28;20216;-55
2022/03/21 02:49:07;;;;;;;53.33;39.88;;;;;;;;;;2074468;28;20177;-56
2022/03/21 02:50:08;;;;;;;55.47;41.00;;;;;;;;;;2063905;28;20256;-56
2022/03/21 02:51:09;;;;;;;58.45;42.13;;;;;;;;;;2064256;28;20213;-59
2022/03/21 02:52:10;;;;;;;53.65;40.22;;;;;;;;;;2073244;28;20203;-53
2022/03/21 02:53:11;;;;;;;51.15;39.67;;;;;;;;;;2073305;28;20168;-56
2022/03/21 02:54:13;;;;;;;51.33;40.40;;;;;;;;;;2070033;28;20221;-56
2022/03/21 02:55:13;;;;;;;51.58;39.78;;;;;;;;;;2073398;28;20211;-55
2022/03/21 02:56:14;;;;;;;52.50;41.30;;;;;;;;;;2073067;28;20200;-52
2022/03/21 02:57:14;;;;;;;53.57;41.73;;;;;;;;;;2072948;28;20271;-53
2022/03/21 02:58:14;;;;;;;53.80;41.65;;;;;;;;;;2073228;28;20767;-58
2022/03/21 02:59:18;;;;;;;51.22;39.67;;;;;;;;;;2073116;28;20189;-57
2022/03/21 03:00:18;;;;;;;52.50;40.25;;;;;;;;;;2079273;28;20272;-56
2022/03/21 03:01:18;;;;;;;56.25;41.25;;;;;;;;;;2079667;28;20181;-57
2022/03/21 03:02:18;;;;;;;53.03;41.38;;;;;;;;;;2080033;28;20716;-56
2022/03/21 03:03:19;;;;;;;52.72;41.88;;;;;;;;;;2078930;28;20285;-55
2022/03/21 03:04:20;;;;;;;56.47;41.40;;;;;;;;;;2068731;28;20209;-61
2022/03/21 03:05:21;;;;;;;51.78;40.25;;;;;;;;;;2065035;28;20651;-56
2022/03/21 03:06:21;;;;;;;54.67;40.92;;;;;;;;;;2070564;28;20263;-54
2022/03/21 03:07:21;;;;;;;55.10;40.80;;;;;;;;;;2072237;28;20184;-53
2022/03/21 03:08:22;;;;;;;51.78;41.30;;;;;;;;;;2071356;28;20184;-53
2022/03/21 03:09:22;;;;;;;54.25;41.13;;;;;;;;;;2071276;28;20565;-54
2022/03/21 03:10:22;;;;;;;57.42;41.00;;;;;;;;;;2072184;28;20199;-54
2022/03/21 03:11:23;;;;;;;55.58;42.20;;;;;;;;;;2073073;28;20182;-52
2022/03/21 03:12:23;;;;;;;53.28;42.25;;;;;;;;;;2072098;28;20186;-52
2022/03/21 03:13:23;;;;;;;52.28;41.15;;;;;;;;;;2072736;28;20188;-52
2022/03/21 03:14:25;;;;;;;53.45;40.90;;;;;;;;;;2073004;28;20201;-57
2022/03/21 03:15:25;;;;;;;54.10;42.25;;;;;;;;;;2068747;28;20547;-54
2022/03/21 03:16:25;;;;;;;55.45;43.08;;;;;;;;;;2071451;28;20169;-58
2022/03/21 03:17:25;;;;;;;54.47;43.00;;;;;;;;;;2072655;28;20749;-55
2022/03/21 03:18:26;;;;;;;48.88;41.15;;;;;;;;;;2072230;28;20242;-57
2022/03/21 03:19:26;;;;;;;52.78;40.22;;;;;;;;;;2072588;28;20593;-57
2022/03/21 03:20:27;;;;;;;54.90;41.47;;;;;;;;;;2071488;28;20181;-54
2022/03/21 03:21:28;;;;;;;52.40;41.88;;;;;;;;;;2072290;28;20259;-55
2022/03/21 03:22:29;;;;;;;55.53;41.20;;;;;;;;;;2067157;28;20197;-56
2022/03/21 03:23:30;;;;;;;52.47;41.00;;;;;;;;;;2072114;28;20208;-54
2022/03/21 03:24:31;;;;;;;51.67;40.83;;;;;;;;;;2065818;28;20205;-54
2022/03/21 03:25:31;;;;;;;52.50;40.42;;;;;;;;;;2072453;28;20759;-55
2022/03/21 03:26:32;;;;;;;52.65;40.88;;;;;;;;;;2057754;28;20190;-54
2022/03/21 03:27:32;;;;;;;49.15;38.70;;;;;;;;;;2064065;28;20566;-58
2022/03/21 03:28:33;;;;;;;54.70;42.10;;;;;;;;;;2072584;28;20678;-57
2022/03/21 03:29:33;;;;;;;51.20;40.60;;;;;;;;;;2072730;28;20172;-55
2022/03/21 03:30:34;;;;;;;50.17;39.93;;;;;;;;;;2065646;28;20214;-55
2022/03/21 03:31:37;;;;;;;49.67;39.10;;;;;;;;;;2073030;28;20173;-51
2022/03/21 03:32:39;;;;;;;53.13;40.28;;;;;;;;;;2065365;28;20185;-57
2022/03/21 03:33:40;;;;;;;53.35;39.60;;;;;;;;;;2072220;28;20165;-56
2022/03/21 03:34:41;;;;;;;51.30;39.70;;;;;;;;;;2066780;28;20267;-54
2022/03/21 03:35:41;;;;;;;52.47;40.10;;;;;;;;;;2073173;28;20195;-55
2022/03/21 03:36:42;;;;;;;51.03;39.53;;;;;;;;;;2070934;28;20184;-56
2022/03/21 03:37:42;;;;;;;53.33;40.97;;;;;;;;;;2073494;28;20229;-56
2022/03/21 03:38:43;;;;;;;55.08;41.97;;;;;;;;;;2072103;28;20177;-52
2022/03/21 03:39:44;;;;;;;52.22;39.85;;;;;;;;;;2072089;28;20177;-52
2022/03/21 03:40:44;;;;;;;51.05;38.67;;;;;;;;;;2058936;28;20194;-55
2022/03/21 03:41:45;;;;;;;52.03;39.58;;;;;;;;;;2063730;28;20173;-56
2022/03/21 03:42:46;;;;;;;49.63;39.47;;;;;;;;;;2064035;28;20174;-53
2022/03/21 03:43:49;;;;;;;48.63;39.23;;;;;;;;;;2063772;28;20639;-53
2022/03/21 03:44:49;;;;;;;49.20;38.63;;;;;;;;;;2072156;28;20161;-54
2022/03/21 03:45:52;;;;;;;50.50;38.37;;;;;;;;;;2072327;28;20276;-55
2022/03/21 03:46:53;;;;;;;53.00;39.83;;;;;;;;;;2070196;28;20261;-57
2022/03/21 03:47:53;;;;;;;51.40;39.97;;;;;;;;;;2072901;28;20231;-57
2022/03/21 03:48:54;;;;;;;48.13;38.58;;;;;;;;;;2072497;28;20442;-54
2022/03/21 03:49:55;;;;;;;49.28;38.53;;;;;;;;;;2071636;28;20188;-54
2022/03/21 03:50:55;;;;;;;51.53;39.72;;;;;;;;;;2063810;28;20711;-56
2022/03/21 03:51:55;;;;;;;50.67;38.50;;;;;;;;;;2063989;28;20205;-55
2022/03/21 03:52:55;;;;;;;49.80;39.07;;;;;;;;;;2074835;28;20227;-53
2022/03/21 03:53:56;;;;;;;47.55;38.47;;;;;;;;;;2074748;28;20742;-57
2022/03/21 03:54:56;;;;;;;48.90;37.43;;;;;;;;;;2079732;28;20173;-53
2022/03/21 03:55:56;;;;;;;51.20;38.40;;;;;;;;;;2080002;28;20181;-52
2022/03/21 03:56:56;;;;;;;51.07;38.60;;;;;;;;;;2080261;28;20310;-57
2022/03/21 03:57:57;;;;;;;48.10;37.40;;;;;;;;;;2078617;28;20223;-54
2022/03/21 03:58:57;;;;;;;44.78;37.55;;;;;;;;;;2073534;28;20261;-54
2022/03/21 03:59:57;;;;;;;49.20;38.20;;;;;;;;;;2073927;28;20180;-54
2022/03/21 04:00:57;;;;;;;47.30;38.43;;;;;;;;;;2071373;28;20654;-53
2022/03/21 04:01:58;;;;;;;51.07;39.43;;;;;;;;;;2067610;28;20188;-54
2022/03/21 04:04:19;;;;;;;47.53;38.17;;;;;;;;;;2070410;28;20192;-51
2022/03/21 04:05:19;;;;;;;48.55;37.72;;;;;;;;;;2070883;28;20179;-54
2022/03/21 04:06:21;;;;;;;49.80;39.00;;;;;;;;;;2069730;28;20177;-55
2022/03/21 04:07:22;;;;;;;49.30;40.27;;;;;;;;;;2071603;28;20184;-57
2022/03/21 04:08:22;;;;;;;52.40;38.83;;;;;;;;;;2070295;28;20182;-53
2022/03/21 04:09:22;;;;;;;54.83;39.47;;;;;;;;;;2073027;28;20813;-55
2022/03/21 04:10:23;;;;;;;50.70;40.30;;;;;;;;;;2071744;28;20230;-56
2022/03/21 04:11:23;;;;;;;53.00;39.23;;;;;;;;;;2072266;28;20550;-52
2022/03/21 04:12:23;;;;;;;50.37;39.40;;;;;;;;;;2073150;28;20207;-53
2022/03/21 04:13:23;;;;;;;51.70;37.20;;;;;;;;;;2063733;28;20178;-55
2022/03/21 04:14:24;;;;;;;50.63;38.13;;;;;;;;;;2063748;28;20756;-55
2022/03/21 04:15:24;;;;;;;53.10;39.13;;;;;;;;;;2072261;28;20634;-59
2022/03/21 04:16:24;;;;;;;51.10;36.53;;;;;;;;;;2068896;28;20193;-55
2022/03/21 04:17:25;;;;;;;51.67;38.77;;;;;;;;;;2067758;28;20177;-52
2022/03/21 04:18:26;;;;;;;47.87;37.47;;;;;;;;;;2070212;28;20244;-54
2022/03/21 04:19:26;;;;;;;50.33;38.90;;;;;;;;;;2070885;28;20264;-54
2022/03/21 04:20:29;;;;;;;51.10;39.63;;;;;;;;;;2063990;28;20623;-57
2022/03/21 04:21:29;;;;;;;46.47;36.57;;;;;;;;;;2064326;28;20170;-54
2022/03/21 04:22:29;;;;;;;52.87;40.37;;;;;;;;;;2064016;28;20277;-53
2022/03/21 04:23:30;;;;;;;56.80;41.07;;;;;;;;;;2064029;28;20181;-56
2022/03/21 04:24:30;;;;;;;50.20;38.73;;;;;;;;;;2071787;28;20209;-56
2022/03/21 04:25:31;;;;;;;49.63;38.57;;;;;;;;;;2069929;28;20188;-55
2022/03/21 04:26:31;;;;;;;47.50;36.10;;;;;;;;;;2064259;28;20181;-58
2022/03/21 04:27:32;;;;;;;48.93;37.53;;;;;;;;;;2063658;28;20673;-54
2022/03/21 04:28:33;;;;;;;48.33;37.00;;;;;;;;;;2064351;28;20181;-57
2022/03/21 04:29:33;;;;;;;49.70;38.57;;;;;;;;;;2070539;28;20185;-54
2022/03/21 04:30:34;;;;;;;52.13;39.00;;;;;;;;;;2064013;28;20341;-53
2022/03/21 04:31:34;;;;;;;52.93;40.53;;;;;;;;;;2063558;28;20243;-55
2022/03/21 04:32:35;;;;;;;51.97;38.73;;;;;;;;;;2074052;28;20223;-53
2022/03/21 04:33:35;;;;;;;54.23;39.13;;;;;;;;;;2072133;28;20183;-56
2022/03/21 04:34:35;;;;;;;52.77;38.27;;;;;;;;;;2066657;28;20233;-58
2022/03/21 04:35:36;;;;;;;46.90;37.40;;;;;;;;;;2075113;28;20264;-55
2022/03/21 04:36:37;;;;;;;48.10;36.60;;;;;;;;;;2074422;28;20584;-53
2022/03/21 04:37:38;;;;;;;47.13;36.83;;;;;;;;;;2074604;28;20192;-55
2022/03/21 04:38:39;;;;;;;50.90;38.73;;;;;;;;;;2074106;28;20185;-54
2022/03/21 04:39:39;;;;;;;50.83;39.20;;;;;;;;;;2074337;28;20181;-55
2022/03/21 04:40:44;;;;;;;46.13;36.23;;;;;;;;;;2081913;28;20172;-54
2022/03/21 04:41:44;;;;;;;46.77;36.33;;;;;;;;;;2078336;28;20232;-53
2022/03/21 04:42:44;;;;;;;49.80;38.13;;;;;;;;;;2073673;28;20169;-53
2022/03/21 04:43:45;;;;;;;46.57;36.63;;;;;;;;;;2068378;28;20189;-56
2022/03/21 04:44:48;;;;;;;45.83;35.33;;;;;;;;;;2073753;28;20640;-55
2022/03/21 04:45:49;;;;;;;46.17;35.50;;;;;;;;;;2073259;28;20176;-55
2022/03/21 04:46:49;;;;;;;48.10;36.53;;;;;;;;;;2073834;28;20642;-57
2022/03/21 04:47:49;;;;;;;45.13;35.30;;;;;;;;;;2062698;28;20182;-52
2022/03/21 04:48:50;;;;;;;44.70;33.83;;;;;;;;;;2065324;28;20188;-59
2022/03/21 04:49:50;;;;;;;42.67;33.73;;;;;;;;;;2073198;28;20196;-55
2022/03/21 04:50:51;;;;;;;46.17;34.47;;;;;;;;;;2073228;28;20181;-56
2022/03/21 04:51:51;;;;;;;42.90;34.37;;;;;;;;;;2073850;28;20626;-54
2022/03/21 04:52:51;;;;;;;45.53;34.17;;;;;;;;;;2071919;28;20646;-56
2022/03/21 04:53:51;;;;;;;45.70;32.37;;;;;;;;;;2074081;28;20184;-52
2022/03/21 04:54:52;;;;;;;45.63;33.93;;;;;;;;;;2082097;23;20233;-62
2022/03/21 04:55:52;;;;;;;47.07;35.03;;;;;;;;;;2064986;28;20296;-63
2022/03/21 04:56:53;;;;;;;48.07;35.60;;;;;;;;;;2064816;28;20185;-63
2022/03/21 04:57:54;;;;;;;45.23;33.43;;;;;;;;;;2065135;28;20165;-63
2022/03/21 04:58:54;;;;;;;44.37;32.73;;;;;;;;;;2065858;28;20166;-62
2022/03/21 04:59:54;;;;;;;43.17;32.40;;;;;;;;;;2064536;28;20843;-63
2022/03/21 05:00:55;;;;;;;42.03;31.80;;;;;;;;;;2060914;28;20229;-64
2022/03/21 05:01:55;;;;;;;43.30;31.93;;;;;;;;;;2060681;28;20239;-64
2022/03/21 05:02:55;;;;;;;36.97;29.80;;;;;;;;;;2065070;28;20201;-65
2022/03/21 05:03:56;;;;;;;39.03;31.90;;;;;;;;;;2059012;28;20185;-64
2022/03/21 05:04:56;;;;;;;38.47;30.67;;;;;;;;;;2062415;28;20783;-64
2022/03/21 05:05:57;;;;;;;39.23;30.87;;;;;;;;;;2063643;28;20305;-63
2022/03/21 05:06:57;;;;;;;43.33;31.20;;;;;;;;;;2065111;28;20551;-64
2022/03/21 05:07:57;;;;;;;39.73;29.60;;;;;;;;;;2064416;28;20181;-65
2022/03/21 05:09:02;;;;;;;35.63;28.30;;;;;;;;;;2065015;28;20197;-64
2022/03/21 05:10:03;;;;;;;38.40;28.83;;;;;;;;;;2065203;28;20236;-65
2022/03/21 05:11:03;;;;;;;40.80;29.90;;;;;;;;;;2064174;28;20186;-64
2022/03/21 05:12:04;;;;;;;39.27;29.87;;;;;;;;;;2056444;28;20167;-65
2022/03/21 05:13:06;;;;;;;42.73;30.30;;;;;;;;;;2055566;28;20226;-64
2022/03/21 05:14:07;;;;;;;41.90;31.03;;;;;;;;;;2052622;28;20733;-64
2022/03/21 05:15:07;;;;;;;36.90;29.77;;;;;;;;;;2056506;28;20214;-64
2022/03/21 05:16:08;;;;;;;38.77;29.03;;;;;;;;;;2065673;28;20182;-64
2022/03/21 05:17:09;;;;;;;40.70;31.20;;;;;;;;;;2065307;28;20209;-65
2022/03/21 05:18:09;;;;;;;35.23;29.27;;;;;;;;;;2065135;28;20188;-65
2022/03/21 05:19:10;;;;;;;38.80;30.00;;;;;;;;;;2065651;28;20181;-64
2022/03/21 05:20:16;;;;;;;40.77;29.93;;;;;;;;;;2065875;28;20201;-59
2022/03/21 05:21:17;;;;;;;43.67;30.57;;;;;;;;;;2049497;29;20182;-64
2022/03/21 05:22:17;;;;;;;37.77;29.63;;;;;;;;;;2054648;28;20193;-61
2022/03/21 05:31:10;;;;;;;33.57;26.77;;;;;;;;;;2062413;28;20568;-63
2022/03/21 05:32:10;;;;;;;35.73;27.63;;;;;;;;;;2056384;28;20368;-63
2022/03/21 05:35:58;;;;;;;36.27;26.87;;;;;;;;;;2059062;28;20177;-63
2022/03/21 05:36:58;;;;;;;33.33;26.27;;;;;;;;;;2057453;28;20212;-64
2022/03/21 05:37:58;;;;;;;32.70;26.83;;;;;;;;;;2059926;28;20258;-61
2022/03/21 05:38:58;;;;;;;34.10;26.60;;;;;;;;;;2061510;28;20185;-63
2022/03/21 05:41:17;;;;;;;32.83;26.10;;;;;;;;;;2065738;28;20177;-61
2022/03/21 05:42:18;;;;;;;37.57;25.70;;;;;;;;;;2064079;28;20169;-63
2022/03/21 05:43:19;;;;;;;34.30;26.67;;;;;;;;;;2067421;28;20181;-63
2022/03/21 05:44:19;;;;;;;33.10;25.30;;;;;;;;;;2066491;28;20200;-61
2022/03/21 05:45:20;;;;;;;29.97;24.67;;;;;;;;;;2062524;28;20256;-62
2022/03/21 05:46:20;;;;;;;32.70;25.00;;;;;;;;;;2065089;28;20669;-62
2022/03/21 05:47:21;;;;;;;31.80;25.47;;;;;;;;;;2056721;28;20175;-61
2022/03/21 05:49:40;;;;;;;32.57;25.27;;;;;;;;;;2063517;28;20169;-64
2022/03/21 05:50:40;;;;;;;32.73;24.13;;;;;;;;;;2065664;28;20272;-61
2022/03/21 05:51:41;;;;;;;34.30;25.10;;;;;;;;;;2064926;28;20765;-62
2022/03/21 05:52:41;;;;;;;27.23;23.57;;;;;;;;;;2065732;28;20192;-63
2022/03/21 05:53:42;;;;;;;32.77;24.63;;;;;;;;;;2065010;28;20614;-64
2022/03/21 05:54:42;;;;;;;30.27;24.43;;;;;;;;;;2065192;28;20174;-63
2022/03/21 05:55:45;;;;;;;30.13;24.83;;;;;;;;;;2061985;28;20619;-64
2022/03/21 05:56:45;;;;;;;27.03;22.50;;;;;;;;;;2065784;28;20192;-63
2022/03/21 05:57:45;;;;;;;29.07;24.23;;;;;;;;;;2061676;28;20185;-62
2022/03/21 05:58:46;;;;;;;29.43;23.43;;;;;;;;;;2065526;28;20165;-62
2022/03/21 06:01:12;;;;;;;28.13;22.33;;;;;;;;;;2060902;28;20201;-64
2022/03/21 06:02:12;;;;;;;30.43;24.07;;;;;;;;;;2062674;28;20177;-62
2022/03/21 06:03:12;;;;;;;30.67;24.77;;;;;;;;;;2064252;28;20201;-65
2022/03/21 06:04:13;;;;;;;26.87;22.63;;;;;;;;;;2065095;28;20189;-63
2022/03/21 06:05:13;;;;;;;27.67;22.90;;;;;;;;;;2065076;28;20378;-61
2022/03/21 06:06:15;;;;;;;27.73;22.63;;;;;;;;;;2065581;28;20244;-63
2022/03/21 06:07:16;;;;;;;29.20;24.63;;;;;;;;;;2053198;28;20257;-62
2022/03/21 06:08:17;;;;;;;28.80;24.10;;;;;;;;;;2053786;28;20178;-63
2022/03/21 06:09:17;;;;;;;29.10;24.33;;;;;;;;;;2055851;28;20170;-65
2022/03/21 06:10:18;;;;;;;29.73;24.83;;;;;;;;;;2052689;28;20726;-63
2022/03/21 06:11:18;;;;;;;30.50;23.93;;;;;;;;;;2065272;28;20201;-64
2022/03/21 06:12:18;;;;;;;33.00;23.20;;;;;;;;;;2064441;28;20693;-62
2022/03/21 06:13:18;;;;;;;27.37;23.43;;;;;;;;;;2061874;28;20623;-62